Time;durP1;ratioP1;P1;durP2;ratioP2;P2;SDS_P1;SDS_P2;PMS_P1;PMS_P2;Temp;Humidity;BMP_temperature;BMP_pressure;BME280_temperature;BME280_humidity;BME280_pressure;Samples;Min_cycle;Max_cycle;Signal;HPM_P1;HPM_P2
2024/04/07 00:03:18;;;;;;;5.72;2.03;;;;;;;18.82;51.42;99482.09;10557885;28;20063;-38
2024/04/07 00:08:19;;;;;;;4.57;2.10;;;;;;;18.74;52.29;99477.81;10539309;28;20059;-39
2024/04/07 00:13:19;;;;;;;3.80;1.90;;;;;;;18.75;51.56;99478.69;10559727;28;20046;-39
2024/04/07 00:18:20;;;;;;;3.55;2.00;;;;;;;18.70;52.57;99481.34;10547471;28;20035;-40
2024/04/07 00:23:22;;;;;;;7.10;2.35;;;;;;;18.68;52.75;99479.63;10575224;28;20034;-38
2024/04/07 00:28:23;;;;;;;2.60;1.83;;;;;;;18.68;51.98;99483.16;10573507;28;20077;-39
2024/04/07 00:33:23;;;;;;;5.13;1.90;;;;;;;18.69;52.21;99471.66;10553928;28;20122;-39
2024/04/07 00:38:24;;;;;;;6.25;1.90;;;;;;;18.68;51.85;99462.00;10571061;28;20040;-40
2024/04/07 00:43:26;;;;;;;6.53;2.25;;;;;;;18.62;53.13;99469.16;10570488;28;20031;-38
2024/04/07 00:48:26;;;;;;;8.23;2.20;;;;;;;18.66;52.18;99487.59;10569301;28;20039;-41
2024/04/07 00:53:27;;;;;;;5.57;2.00;;;;;;;18.66;52.33;99492.03;10567836;28;20072;-39
2024/04/07 00:58:28;;;;;;;5.80;1.83;;;;;;;18.66;53.02;99495.53;10562361;28;20414;-41
2024/04/07 01:03:29;;;;;;;4.20;2.13;;;;;;;18.68;52.55;99490.22;10548513;28;20058;-40
2024/04/07 01:08:30;;;;;;;4.97;2.00;;;;;;;18.66;53.08;99486.72;10564197;28;20027;-39
2024/04/07 01:13:33;;;;;;;4.05;1.88;;;;;;;18.66;53.10;99495.53;10562149;28;20036;-40
2024/04/07 01:18:33;;;;;;;5.95;2.00;;;;;;;18.63;53.72;99502.66;10561086;28;20054;-41
2024/04/07 01:23:34;;;;;;;6.85;2.22;;;;;;;18.64;53.53;99517.63;10560199;28;20507;-39
2024/04/07 01:28:35;;;;;;;5.95;1.83;;;;;;;18.66;53.39;99505.25;10559562;28;20042;-38
2024/04/07 01:33:36;;;;;;;5.05;2.15;;;;;;;18.65;53.11;99498.19;10560067;28;20081;-40
2024/04/07 01:38:36;;;;;;;5.82;1.90;;;;;;;18.66;53.15;99519.34;10556067;28;20458;-39
2024/04/07 01:43:37;;;;;;;5.38;2.15;;;;;;;18.63;53.70;99523.84;10555816;28;20040;-37
2024/04/07 01:48:38;;;;;;;5.95;1.95;;;;;;;18.60;53.61;99539.75;10559555;28;20051;-38
2024/04/07 01:53:40;;;;;;;5.10;2.28;;;;;;;18.55;54.19;99550.38;10553535;28;20047;-41
2024/04/07 01:58:40;;;;;;;4.45;2.10;;;;;;;18.53;53.94;99549.56;10552455;28;20032;-41
2024/04/07 02:03:41;;;;;;;7.05;2.33;;;;;;;18.48;54.69;99559.31;10562437;28;20516;-41
2024/04/07 02:08:41;;;;;;;3.80;1.80;;;;;;;18.42;55.15;99560.25;10570802;28;20031;-39
2024/04/07 02:13:42;;;;;;;4.60;2.00;;;;;;;18.43;54.86;99562.03;10569102;28;20498;-38
2024/04/07 02:18:43;;;;;;;5.72;1.90;;;;;;;18.41;55.57;99561.16;10568304;28;20031;-39
2024/04/07 02:23:44;;;;;;;9.45;2.10;;;;;;;18.48;55.01;99580.47;10566812;28;20409;-40
2024/04/07 02:28:45;;;;;;;5.68;2.00;;;;;;;18.42;55.42;99581.44;10548310;28;20517;-39
2024/04/07 02:33:46;;;;;;;5.95;2.17;;;;;;;18.51;54.57;99583.97;10564879;28;20120;-39
2024/04/07 02:38:47;;;;;;;5.68;1.80;;;;;;;18.58;54.35;99581.22;10563378;28;20125;-39
2024/04/07 02:43:49;;;;;;;5.93;2.00;;;;;;;18.62;54.68;99583.84;10547531;28;20103;-38
2024/04/07 02:48:49;;;;;;;6.63;1.95;;;;;;;18.81;53.31;99594.19;10562728;28;20044;-39
2024/04/07 02:53:50;;;;;;;6.82;2.00;;;;;;;18.79;53.67;99615.41;10553196;28;20047;-41
2024/04/07 02:58:51;;;;;;;9.10;1.95;;;;;;;18.81;54.35;99618.91;10568295;28;20039;-39
2024/04/07 03:03:51;;;;;;;7.43;2.40;;;;;;;18.87;53.55;99634.72;10574299;28;20031;-39
2024/04/07 03:08:57;;;;;;;6.93;2.38;;;;;;;18.94;53.46;99648.72;10564763;28;20089;-38
2024/04/07 03:13:57;;;;;;;6.45;2.00;;;;;;;18.91;53.89;99673.47;10563525;28;20106;-40
2024/04/07 03:18:58;;;;;;;10.68;1.90;;;;;;;18.92;54.51;99693.75;10565303;28;20076;-38
2024/04/07 03:23:58;;;;;;;5.95;2.08;;;;;;;18.83;56.02;99701.81;10564281;28;20036;-41
2024/04/07 03:28:59;;;;;;;7.00;2.03;;;;;;;18.70;57.51;99735.47;10542722;28;20066;-42
2024/04/07 03:34:00;;;;;;;6.55;2.20;;;;;;;18.55;59.66;99733.91;10557522;28;20374;-38
2024/04/07 03:39:00;;;;;;;7.00;2.30;;;;;;;18.52;62.33;99759.50;10558909;28;20076;-38
2024/04/07 03:44:01;;;;;;;13.32;2.90;;;;;;;18.43;67.40;99791.38;10557394;28;20036;-39
2024/04/07 03:49:02;;;;;;;5.57;2.50;;;;;;;18.30;71.11;99811.75;10575943;28;20126;-42
2024/04/07 03:54:03;;;;;;;11.40;2.80;;;;;;;18.08;75.94;99829.56;10576391;28;20042;-41
2024/04/07 03:59:04;;;;;;;9.32;3.15;;;;;;;17.84;86.29;99827.97;10575718;28;20034;-39
2024/04/07 04:04:04;;;;;;;7.50;3.10;;;;;;;17.67;91.38;99848.31;10573540;28;20043;-39
2024/04/07 04:09:05;;;;;;;8.38;2.63;;;;;;;17.39;98.92;99869.56;10573239;28;20043;-40
2024/04/07 04:14:06;;;;;;;10.27;2.65;;;;;;;17.29;100.00;99858.16;10573157;28;20382;-38
2024/04/07 04:19:06;;;;;;;8.07;2.50;;;;;;;17.14;100.00;99858.22;10572221;28;20047;-40
2024/04/07 04:24:07;;;;;;;7.80;2.72;;;;;;;16.94;100.00;99892.59;10569785;28;20085;-39
2024/04/07 04:29:08;;;;;;;8.43;2.58;;;;;;;16.86;100.00;99924.28;10569084;28;20031;-40
2024/04/07 04:34:08;;;;;;;9.02;2.63;;;;;;;16.73;100.00;99945.38;10547927;28;20385;-39
2024/04/07 04:39:09;;;;;;;8.43;2.70;;;;;;;16.50;100.00;99922.50;10566040;28;20031;-38
2024/04/07 04:44:09;;;;;;;5.35;2.63;;;;;;;16.41;100.00;99923.38;10562932;28;20035;-38
2024/04/07 04:49:11;;;;;;;6.20;2.35;;;;;;;16.24;100.00;99940.94;10562118;28;20048;-40
2024/04/07 04:54:11;;;;;;;7.22;2.20;;;;;;;16.20;100.00;99925.97;10559317;28;20394;-39
2024/04/07 04:59:12;;;;;;;7.30;2.30;;;;;;;16.15;100.00;99940.91;10562317;28;20036;-39
2024/04/07 05:04:12;;;;;;;5.55;2.10;;;;;;;16.09;100.00;99948.81;10561335;28;20035;-39
2024/04/07 05:09:14;;;;;;;6.35;2.00;;;;;;;16.07;100.00;99922.44;10557403;28;20543;-39
2024/04/07 05:14:14;;;;;;;5.88;2.20;;;;;;;16.01;100.00;99935.59;10558099;28;20485;-38
2024/04/07 05:19:15;;;;;;;7.30;2.10;;;;;;;16.05;100.00;99973.38;10558462;28;20039;-40
2024/04/07 05:24:17;;;;;;;4.28;1.90;;;;;;;15.95;100.00;99981.28;10553750;28;20172;-40
2024/04/07 05:29:18;;;;;;;6.70;2.30;;;;;;;15.91;100.00;100004.97;10558339;28;20032;-39
2024/04/07 05:34:19;;;;;;;7.53;1.95;;;;;;;15.89;100.00;99994.44;10568271;28;20043;-41
2024/04/07 05:39:19;;;;;;;5.97;2.30;;;;;;;15.99;100.00;99992.72;10571265;28;20031;-40
2024/04/07 05:44:20;;;;;;;4.15;2.00;;;;;;;15.90;100.00;100001.47;10552947;28;20040;-40
2024/04/07 05:49:21;;;;;;;6.47;2.20;;;;;;;15.95;100.00;99997.09;10551106;28;20032;-40
2024/04/07 05:54:21;;;;;;;7.47;2.30;;;;;;;15.92;100.00;100026.09;10568705;28;20039;-39
2024/04/07 05:59:23;;;;;;;4.57;2.10;;;;;;;16.08;100.00;100007.66;10567672;28;20726;-42
2024/04/07 06:04:25;;;;;;;6.88;2.55;;;;;;;16.14;100.00;100005.97;10564692;28;20122;-39
2024/04/07 06:09:27;;;;;;;7.43;2.20;;;;;;;16.12;100.00;100009.47;10564717;28;20089;-38
2024/04/07 06:14:28;;;;;;;7.05;2.70;;;;;;;16.02;100.00;100017.34;10563432;28;20490;-37
2024/04/07 06:19:29;;;;;;;7.53;2.30;;;;;;;16.14;100.00;100007.69;10559180;28;20071;-41
2024/04/07 06:24:29;;;;;;;7.70;2.28;;;;;;;16.20;100.00;99994.53;10560484;28;20035;-42
2024/04/07 06:29:30;;;;;;;9.10;2.63;;;;;;;16.24;100.00;99991.03;10561723;28;20520;-40
2024/04/07 06:34:31;;;;;;;7.10;2.40;;;;;;;16.25;100.00;99984.88;10560691;28;20043;-41
2024/04/07 06:39:31;;;;;;;7.22;2.60;;;;;;;16.24;100.00;99984.00;10562973;28;20047;-41
2024/04/07 06:44:32;;;;;;;8.57;2.70;;;;;;;16.34;100.00;99989.31;10556411;28;20044;-41
2024/04/07 06:49:32;;;;;;;7.15;2.65;;;;;;;16.32;100.00;99975.22;10556251;28;20028;-40
2024/04/07 06:54:33;;;;;;;8.27;2.83;;;;;;;16.37;100.00;99974.38;10557175;28;20040;-40
2024/04/07 06:59:34;;;;;;;8.00;2.67;;;;;;;16.33;100.00;99991.03;10553485;28;20035;-39
2024/04/07 07:04:34;;;;;;;7.50;2.67;;;;;;;16.29;100.00;99985.78;10552150;28;20481;-39
2024/04/07 07:09:35;;;;;;;6.90;2.65;;;;;;;16.36;100.00;99991.03;10554997;28;20039;-37
2024/04/07 07:14:37;;;;;;;6.93;2.88;;;;;;;16.37;100.00;100003.38;10550195;28;20031;-39
2024/04/07 07:19:38;;;;;;;7.22;3.33;;;;;;;16.41;100.00;100005.13;10567273;28;20043;-39
2024/04/07 07:24:38;;;;;;;12.43;3.67;;;;;;;16.46;100.00;100008.69;10569210;28;20032;-40
2024/04/07 07:29:39;;;;;;;7.85;3.33;;;;;;;16.38;100.00;100010.41;10564323;28;20044;-41
2024/04/07 07:34:39;;;;;;;12.02;4.18;;;;;;;16.58;100.00;100010.44;10563016;28;20505;-39
2024/04/07 07:39:40;;;;;;;6.68;3.30;;;;;;;16.79;100.00;100024.59;10554545;28;20044;-39
2024/04/07 07:44:41;;;;;;;9.35;3.35;;;;;;;16.85;100.00;100036.03;10569854;28;20394;-39
2024/04/07 07:49:41;;;;;;;12.13;3.78;;;;;;;16.96;100.00;100050.97;10570960;28;20108;-40
2024/04/07 07:54:42;;;;;;;8.05;3.22;;;;;;;17.15;100.00;100036.91;10569228;28;20040;-40
2024/04/07 07:59:43;;;;;;;10.35;3.00;;;;;;;17.43;100.00;100034.25;10571608;28;20042;-40
2024/04/07 08:04:43;;;;;;;7.63;3.03;;;;;;;17.31;100.00;100038.63;10569634;28;20039;-39
2024/04/07 08:09:44;;;;;;;7.03;2.78;;;;;;;17.37;100.00;100056.25;10566730;28;20043;-39
2024/04/07 08:14:45;;;;;;;6.53;2.53;;;;;;;17.26;100.00;100061.56;10567178;28;20117;-40
2024/04/07 08:19:46;;;;;;;8.25;2.70;;;;;;;17.15;100.00;100074.75;10563796;28;20051;-40
2024/04/07 08:24:46;;;;;;;8.68;3.00;;;;;;;17.00;100.00;100069.47;10564805;28;20050;-40
2024/04/07 08:29:47;;;;;;;7.38;2.45;;;;;;;17.01;100.00;100075.63;10561540;28;20039;-42
2024/04/07 08:34:48;;;;;;;5.32;2.03;;;;;;;17.08;100.00;100082.69;10563086;28;20047;-40
2024/04/07 08:39:48;;;;;;;5.50;2.15;;;;;;;17.11;100.00;100088.84;10557169;28;20489;-40
2024/04/07 08:44:49;;;;;;;8.00;1.95;;;;;;;17.15;100.00;100100.28;10557403;28;20040;-39
2024/04/07 08:49:49;;;;;;;6.22;1.90;;;;;;;17.18;98.40;100093.22;10545085;28;20047;-41
2024/04/07 08:54:50;;;;;;;5.57;1.80;;;;;;;17.28;97.59;100094.13;10554671;28;20051;-40
2024/04/07 08:59:52;;;;;;;4.38;1.70;;;;;;;17.33;96.82;100099.41;10553996;28;20039;-40
2024/04/07 09:04:52;;;;;;;3.08;1.70;;;;;;;17.44;96.97;100105.56;10562262;28;20126;-40
2024/04/07 09:09:53;;;;;;;4.43;1.70;;;;;;;17.74;94.25;100104.66;10572699;28;20047;-38
2024/04/07 09:14:55;;;;;;;4.32;1.90;;;;;;;17.95;95.43;100106.44;10571060;28;20039;-39
2024/04/07 09:19:55;;;;;;;6.30;1.77;;;;;;;18.10;92.49;100109.00;10569713;27;20095;-41
2024/04/07 09:24:59;;;;;;;4.00;1.70;;;;;;;18.38;88.78;100108.03;10570125;27;20496;-41
2024/04/07 09:30:00;;;;;;;6.35;1.58;;;;;;;18.56;85.92;100102.66;10563606;27;20437;-40
2024/04/07 09:35:01;;;;;;;4.47;1.58;;;;;;;18.74;81.30;100096.38;10547350;28;20054;-41
2024/04/07 09:40:02;;;;;;;5.68;1.63;;;;;;;18.70;79.45;100090.22;10566883;28;20031;-39
2024/04/07 09:45:03;;;;;;;3.30;1.60;;;;;;;18.67;81.25;100090.22;10559516;28;20023;-39
2024/04/07 09:50:05;;;;;;;4.13;1.80;;;;;;;18.71;82.92;100085.78;10545185;28;20036;-40
2024/04/07 09:55:06;;;;;;;4.75;1.50;;;;;;;18.71;81.05;100091.09;10540860;28;20035;-42
2024/04/07 10:00:10;;;;;;;5.63;1.52;;;;;;;18.63;80.41;100093.78;10527821;28;20062;-39
2024/04/07 10:05:11;;;;;;;5.93;1.80;;;;;;;18.95;81.19;100072.44;10540612;28;20102;-40
2024/04/07 10:10:11;;;;;;;6.38;1.67;;;;;;;19.20;83.27;100078.41;10540302;28;20046;-41
2024/04/07 10:15:21;;;;;;;4.28;1.63;;;;;;;19.41;80.17;100066.75;10556246;28;20036;-41
2024/04/07 10:20:26;;;;;;;4.68;1.73;;;;;;;19.17;73.52;100073.16;10557528;28;20036;-40
2024/04/07 10:25:33;;;;;;;7.53;1.70;;;;;;;19.13;78.95;100070.53;10554102;28;20032;-38
2024/04/07 10:30:34;;;;;;;4.25;1.80;;;;;;;19.08;75.97;100093.53;10555623;28;20508;-41
2024/04/07 10:35:34;;;;;;;3.25;1.40;;;;;;;19.06;79.29;100076.75;10533750;28;20043;-41
2024/04/07 10:40:35;;;;;;;4.22;1.30;;;;;;;19.03;81.84;100077.69;10532665;28;20109;-41
2024/04/07 10:45:36;;;;;;;5.32;1.63;;;;;;;18.99;79.62;100078.56;10533454;28;20051;-41
2024/04/07 10:50:37;;;;;;;4.18;1.40;;;;;;;19.10;80.88;100076.75;10552908;28;20028;-41
2024/04/07 10:55:38;;;;;;;4.70;1.60;;;;;;;19.33;80.49;100073.91;10565223;28;20599;-40
2024/04/07 11:00:39;;;;;;;5.75;1.50;;;;;;;19.38;72.58;100065.91;10567596;28;20036;-40
2024/04/07 11:05:40;;;;;;;2.55;1.40;;;;;;;19.45;72.47;100064.97;10547952;28;20066;-41
2024/04/07 11:10:40;;;;;;;5.15;1.55;;;;;;;19.53;71.92;100063.09;10567446;28;20089;-39
2024/04/07 11:15:45;;;;;;;3.33;1.48;;;;;;;19.42;70.34;100071.16;10573068;28;20047;-41
2024/04/07 11:20:46;;;;;;;5.53;1.55;;;;;;;19.33;67.11;100075.66;10572443;28;20039;-40
2024/04/07 11:25:48;;;;;;;4.82;1.38;;;;;;;19.37;67.15;100088.00;10549100;28;20126;-42
2024/04/07 11:30:49;;;;;;;2.30;1.20;;;;;;;19.51;63.37;100085.25;10570381;28;20040;-40
2024/04/07 11:35:50;;;;;;;4.88;1.40;;;;;;;19.55;61.90;100089.59;10567139;28;20043;-39
2024/04/07 11:40:50;;;;;;;5.20;1.70;;;;;;;19.84;61.42;100092.00;10548263;28;25405;-40
2024/04/07 11:45:51;;;;;;;5.78;1.40;;;;;;;20.19;62.69;100073.03;10546903;28;20044;-40
2024/04/07 11:50:52;;;;;;;4.22;1.70;;;;;;;20.36;61.83;100089.63;10566591;28;20040;-40
2024/04/07 11:55:52;;;;;;;3.70;1.52;;;;;;;20.51;62.26;100092.97;10544568;28;20374;-39
2024/04/07 12:00:53;;;;;;;4.57;1.50;;;;;;;20.68;63.13;100079.47;10563183;28;20035;-39
2024/04/07 12:05:54;;;;;;;4.50;1.60;;;;;;;20.82;60.16;100074.84;10563243;28;20044;-40
2024/04/07 12:10:54;;;;;;;3.10;1.40;;;;;;;20.74;60.31;100069.66;10562772;28;20040;-40
2024/04/07 12:15:55;;;;;;;4.43;1.50;;;;;;;20.60;57.23;100075.16;10557845;28;20066;-39
2024/04/07 12:20:56;;;;;;;3.88;1.70;;;;;;;20.75;57.05;100074.06;10559710;28;20032;-41
2024/04/07 12:25:56;;;;;;;3.45;1.70;;;;;;;20.92;56.82;100073.81;10558140;28;20044;-41
2024/04/07 12:30:57;;;;;;;3.22;1.30;;;;;;;20.77;56.75;100076.69;10536511;28;20043;-39
2024/04/07 12:35:57;;;;;;;4.40;1.35;;;;;;;20.45;57.32;100074.47;10541450;28;20051;-39
2024/04/07 12:40:58;;;;;;;3.13;1.30;;;;;;;20.21;57.16;100065.06;10573266;28;20492;-39
2024/04/07 12:45:59;;;;;;;2.45;1.23;;;;;;;20.12;54.99;100061.59;10572124;28;20047;-42
2024/04/07 12:50:59;;;;;;;4.82;1.40;;;;;;;20.26;55.35;100057.91;10571508;28;20054;-41
2024/04/07 12:56:00;;;;;;;3.53;1.27;;;;;;;20.25;52.86;100057.03;10569152;28;20036;-39
2024/04/07 13:01:01;;;;;;;5.28;1.20;;;;;;;20.32;54.05;100063.13;10568585;28;20496;-38
2024/04/07 13:06:02;;;;;;;3.65;1.15;;;;;;;20.84;49.19;100051.81;10567096;28;20035;-42
2024/04/07 13:11:05;;;;;;;1.85;0.98;;;;;;;21.03;47.52;100039.13;10560819;28;20038;-40
2024/04/07 13:16:06;;;;;;;2.40;1.10;;;;;;;21.08;47.88;100038.13;10564316;28;20039;-40
2024/04/07 13:21:07;;;;;;;2.70;1.10;;;;;;;20.98;48.13;100033.88;10564081;28;20032;-39
2024/04/07 13:26:07;;;;;;;3.67;1.20;;;;;;;20.92;51.26;100027.78;10563233;28;20039;-39
2024/04/07 13:31:08;;;;;;;5.05;1.45;;;;;;;21.14;50.42;100020.31;10559633;28;20050;-40
2024/04/07 13:36:09;;;;;;;2.97;1.15;;;;;;;20.85;50.20;100021.69;10558744;28;20412;-42
2024/04/07 13:41:10;;;;;;;3.35;1.08;;;;;;;20.62;48.76;100025.56;10559963;28;20040;-40
2024/04/07 13:46:11;;;;;;;2.35;1.00;;;;;;;20.94;49.10;100025.97;10548284;28;20408;-40
2024/04/07 13:51:11;;;;;;;2.80;1.20;;;;;;;21.05;48.66;100010.72;10550382;28;20042;-43
2024/04/07 13:56:12;;;;;;;4.45;1.10;;;;;;;21.27;48.47;100012.09;10560812;28;20040;-40
2024/04/07 14:01:15;;;;;;;3.40;1.35;;;;;;;21.09;50.39;100013.31;10556733;28;20046;-40
2024/04/07 14:06:17;;;;;;;3.92;1.10;;;;;;;21.44;50.24;100008.28;10557939;28;20568;-39
2024/04/07 14:11:18;;;;;;;4.10;1.27;;;;;;;21.35;48.43;100005.78;10560306;28;20046;-41
2024/04/07 14:16:18;;;;;;;5.70;1.40;;;;;;;21.17;50.01;100013.19;10556187;28;20066;-41
2024/04/07 14:21:19;;;;;;;2.65;1.10;;;;;;;21.01;50.10;100007.25;10559417;28;20036;-41
2024/04/07 14:26:19;;;;;;;3.05;1.30;;;;;;;21.00;51.48;99988.69;10562722;28;20401;-39
2024/04/07 14:31:20;;;;;;;2.63;1.48;;;;;;;21.09;52.73;99992.06;10554644;28;20036;-42
2024/04/07 14:36:21;;;;;;;4.90;1.40;;;;;;;21.16;53.36;99979.53;10558745;28;20032;-39
2024/04/07 14:41:21;;;;;;;4.00;1.42;;;;;;;21.04;54.33;99966.47;10557435;28;20485;-40
2024/04/07 14:46:22;;;;;;;5.63;1.55;;;;;;;20.77;54.14;99954.50;10556678;28;20044;-40
2024/04/07 14:51:23;;;;;;;3.15;1.30;;;;;;;20.64;56.28;99961.81;10566140;28;20397;-41
2024/04/07 14:56:23;;;;;;;3.28;1.30;;;;;;;20.57;58.23;99946.88;10561285;28;20051;-41
2024/04/07 15:01:24;;;;;;;4.40;1.40;;;;;;;20.47;59.36;99945.25;10568762;28;20032;-41
2024/04/07 15:06:25;;;;;;;3.75;1.50;;;;;;;20.44;60.74;99954.13;10564247;28;20040;-39
2024/04/07 15:11:26;;;;;;;3.42;1.40;;;;;;;20.48;61.46;99957.59;10563578;28;20044;-41
2024/04/07 15:16:28;;;;;;;5.32;1.50;;;;;;;20.67;65.36;99942.28;10569783;28;20039;-40
2024/04/07 15:21:28;;;;;;;4.03;1.58;;;;;;;20.75;61.05;99935.97;10563359;28;20560;-41
2024/04/07 15:26:29;;;;;;;4.03;1.60;;;;;;;20.73;61.37;99928.91;10565924;28;20044;-41
2024/04/07 15:31:30;;;;;;;4.75;1.67;;;;;;;20.74;63.03;99922.69;10563848;28;20039;-40
2024/04/07 15:36:30;;;;;;;5.03;1.63;;;;;;;20.66;62.35;99922.84;10561295;28;20098;-39
2024/04/07 15:41:31;;;;;;;3.30;1.50;;;;;;;20.61;65.62;99900.78;10565469;28;20055;-40
2024/04/07 15:46:32;;;;;;;3.28;1.65;;;;;;;20.58;66.72;99899.06;10560856;28;20044;-39
2024/04/07 15:51:32;;;;;;;4.30;1.63;;;;;;;20.51;65.75;99899.16;10563564;28;20031;-43
2024/04/07 15:56:33;;;;;;;2.92;1.83;;;;;;;20.40;69.14;99892.25;10534285;28;20085;-41
2024/04/07 16:01:34;;;;;;;3.83;1.92;;;;;;;20.26;72.78;99904.84;10558835;28;20520;-39
2024/04/07 16:06:34;;;;;;;3.30;1.90;;;;;;;20.15;76.00;99902.38;10567873;28;20511;-39
2024/04/07 16:11:35;;;;;;;4.97;2.00;;;;;;;20.04;75.10;99895.44;10561981;28;20043;-42
2024/04/07 16:16:36;;;;;;;5.18;1.80;;;;;;;19.97;71.64;99883.19;10558525;28;20039;-41
2024/04/07 16:21:36;;;;;;;8.38;1.92;;;;;;;19.91;71.99;99878.84;10567325;28;20085;-40
2024/04/07 16:26:37;;;;;;;5.78;2.30;;;;;;;19.85;72.54;99884.22;10560699;28;20084;-41
2024/04/07 16:31:38;;;;;;;4.78;2.00;;;;;;;19.81;73.10;99887.81;10564527;28;20047;-41
2024/04/07 16:36:38;;;;;;;5.80;2.00;;;;;;;19.75;75.10;99874.66;10562756;28;20055;-40
2024/04/07 16:41:40;;;;;;;4.78;1.70;;;;;;;19.68;76.88;99884.47;10559706;28;20112;-39
2024/04/07 16:46:43;;;;;;;5.15;2.00;;;;;;;19.61;79.13;99888.06;10563489;28;20039;-41
2024/04/07 16:51:47;;;;;;;6.05;1.90;;;;;;;19.53;80.72;99885.50;10560202;28;20497;-41
2024/04/07 16:56:48;;;;;;;4.30;2.42;;;;;;;19.46;82.32;99887.34;10561812;28;20039;-40
2024/04/07 17:01:49;;;;;;;8.45;2.67;;;;;;;19.39;82.45;99885.66;10561982;28;20047;-41
2024/04/07 17:06:50;;;;;;;6.60;2.25;;;;;;;19.37;82.65;99870.69;10556108;28;20036;-38
2024/04/07 17:11:50;;;;;;;8.25;2.00;;;;;;;19.36;80.11;99867.16;10565347;28;20184;-41
2024/04/07 17:16:51;;;;;;;4.53;1.90;;;;;;;19.32;82.42;99856.63;10560327;28;20493;-39
2024/04/07 17:21:52;;;;;;;4.50;2.22;;;;;;;19.29;82.97;99856.66;10559655;28;20032;-40
2024/04/07 17:28:25;;;;;;;5.38;2.60;;;;;;;19.18;86.51;99841.75;11215139;25;20520;-34
2024/04/07 17:33:26;;;;;;;6.53;2.80;;;;;;;19.08;86.39;99842.75;11168256;26;20371;-33
2024/04/07 17:38:27;;;;;;;6.30;2.60;;;;;;;19.02;87.23;99830.44;11215094;26;20443;-34
2024/04/07 17:43:29;;;;;;;5.57;2.50;;;;;;;18.94;88.94;99832.34;11227430;26;20595;-33
2024/04/07 17:48:31;;;;;;;5.88;2.47;;;;;;;18.87;89.88;99835.03;11208237;26;20010;-34
2024/04/07 17:53:34;;;;;;;4.28;2.47;;;;;;;18.86;90.35;99839.47;11190059;26;20021;-36
2024/04/07 17:58:35;;;;;;;4.32;1.95;;;;;;;18.79;91.00;99836.00;11216501;26;20023;-34
2024/04/07 18:03:38;;;;;;;5.15;2.25;;;;;;;18.78;91.49;99833.38;11204398;26;20009;-33
2024/04/07 18:08:39;;;;;;;4.75;2.20;;;;;;;18.77;94.60;99829.88;11220189;26;20042;-34
2024/04/07 18:13:40;;;;;;;6.95;2.92;;;;;;;18.74;98.36;99827.25;11211324;26;19996;-33
2024/04/07 18:18:41;;;;;;;7.90;3.08;;;;;;;18.68;100.00;99829.94;11212038;26;20006;-33
2024/04/07 18:23:48;;;;;;;7.38;3.25;;;;;;;18.60;100.00;99825.59;11216824;26;20002;-31
2024/04/07 18:28:49;;;;;;;9.05;3.20;;;;;;;18.53;100.00;99832.72;11274539;26;20441;-32
2024/04/07 18:33:50;;;;;;;5.38;3.13;;;;;;;18.48;100.00;99832.75;11282820;26;20431;-32
2024/04/07 18:38:51;;;;;;;7.20;3.22;;;;;;;18.44;100.00;99838.09;11255135;26;20365;-31
2024/04/07 18:43:52;;;;;;;6.68;3.40;;;;;;;18.38;100.00;99846.94;11248009;26;19995;-40
2024/04/07 18:48:54;;;;;;;6.43;3.30;;;;;;;18.40;100.00;99849.59;11233080;26;20007;-40
2024/04/07 18:53:55;;;;;;;5.88;3.10;;;;;;;18.41;100.00;99849.56;11249366;26;20005;-40
2024/04/07 18:58:56;;;;;;;7.13;3.03;;;;;;;18.37;100.00;99849.63;11250283;26;19995;-39
2024/04/07 19:03:57;;;;;;;6.13;3.53;;;;;;;18.31;100.00;99845.25;11253482;26;19998;-40
2024/04/07 19:09:00;;;;;;;8.60;4.00;;;;;;;18.29;100.00;99839.09;11166990;26;20014;-39
2024/04/07 19:14:01;;;;;;;8.65;4.40;;;;;;;18.24;100.00;99843.56;11309225;26;20335;-39
2024/04/07 19:19:05;;;;;;;9.88;4.70;;;;;;;18.13;100.00;99840.09;11328174;26;20349;-39
2024/04/07 19:24:07;;;;;;;6.60;4.10;;;;;;;18.10;100.00;99839.22;11330907;26;20075;-39
2024/04/07 19:29:08;;;;;;;6.40;3.80;;;;;;;18.08;100.00;99835.75;11330062;26;20445;-38
2024/04/07 19:34:09;;;;;;;8.15;4.20;;;;;;;18.05;100.00;99848.09;11322113;26;20002;-40
2024/04/07 19:39:10;;;;;;;9.98;5.00;;;;;;;18.05;100.00;99842.81;11338485;26;20348;-41
2024/04/07 19:44:11;;;;;;;8.70;4.20;;;;;;;18.03;100.00;99837.53;11296023;26;20440;-40
2024/04/07 19:49:12;;;;;;;9.23;5.05;;;;;;;17.97;100.00;99845.50;11315413;26;20013;-41
2024/04/07 19:54:13;;;;;;;8.48;4.97;;;;;;;17.97;100.00;99841.97;11336877;26;19998;-39
2024/04/07 19:59:15;;;;;;;9.13;4.68;;;;;;;17.88;100.00;99826.19;11287582;26;20516;-40
2024/04/07 20:04:16;;;;;;;7.18;4.47;;;;;;;17.62;100.00;99820.13;11325436;26;20014;-40
2024/04/07 20:09:17;;;;;;;7.03;4.10;;;;;;;17.63;100.00;99805.16;11325907;26;20002;-40
2024/04/07 20:14:22;;;;;;;8.75;4.35;;;;;;;17.53;100.00;99809.59;11285308;26;19995;-39
2024/04/07 20:19:23;;;;;;;8.13;3.67;;;;;;;17.32;100.00;99829.09;11331151;26;20337;-40
2024/04/07 20:24:24;;;;;;;7.00;2.95;;;;;;;17.36;100.00;99849.31;11280729;26;20525;-40
2024/04/07 20:29:26;;;;;;;6.28;2.58;;;;;;;17.36;100.00;99866.94;11323277;26;20011;-37
2024/04/07 20:34:27;;;;;;;6.22;2.53;;;;;;;17.20;100.00;99878.47;11328764;26;20016;-39
2024/04/07 20:39:28;;;;;;;5.60;2.40;;;;;;;17.08;100.00;99852.97;11321586;26;20009;-38
2024/04/07 20:44:29;;;;;;;7.22;2.40;;;;;;;16.89;100.00;99839.81;11329680;26;20437;-39
2024/04/07 20:49:30;;;;;;;6.28;2.30;;;;;;;16.59;100.00;99856.53;11320850;26;20010;-40
2024/04/07 20:54:31;;;;;;;6.68;2.53;;;;;;;16.37;100.00;99860.97;11319024;26;20443;-39
2024/04/07 20:59:33;;;;;;;7.35;2.58;;;;;;;16.06;100.00;99862.69;11331359;26;20006;-38
2024/04/07 21:04:35;;;;;;;6.38;2.50;;;;;;;15.94;100.00;99866.16;11323136;26;20002;-38
2024/04/07 21:09:37;;;;;;;6.00;2.55;;;;;;;15.59;100.00;99852.88;11319811;26;19994;-40
2024/04/07 21:14:38;;;;;;;7.35;2.50;;;;;;;15.42;100.00;99831.78;11326364;26;19998;-38
2024/04/07 21:19:39;;;;;;;6.18;2.47;;;;;;;15.38;100.00;99827.38;11296771;26;19991;-40
2024/04/07 21:24:40;;;;;;;5.40;2.40;;;;;;;15.54;100.00;99813.38;11324214;26;20454;-38
2024/04/07 21:29:42;;;;;;;6.28;2.53;;;;;;;15.48;100.00;99799.31;11328614;26;19994;-40
2024/04/07 21:34:43;;;;;;;5.97;2.65;;;;;;;15.51;100.00;99773.88;11323892;26;19994;-38
2024/04/07 21:39:44;;;;;;;9.85;2.30;;;;;;;15.52;100.00;99767.72;11327817;26;20609;-38
2024/04/07 21:44:45;;;;;;;4.82;2.50;;;;;;;15.31;100.00;99780.81;11323475;26;20022;-38
2024/04/07 21:49:46;;;;;;;6.85;2.55;;;;;;;15.30;100.00;99795.72;11326658;26;20002;-41
2024/04/07 21:54:48;;;;;;;4.95;2.33;;;;;;;15.23;100.00;99801.84;11318850;26;19994;-38
2024/04/07 21:59:50;;;;;;;6.35;2.60;;;;;;;15.50;100.00;99813.34;11329807;26;20028;-40
2024/04/07 22:04:51;;;;;;;9.82;2.97;;;;;;;15.54;100.00;99802.84;11327097;26;20026;-38
2024/04/07 22:09:53;;;;;;;7.90;2.85;;;;;;;15.45;100.00;99802.81;11317118;26;20512;-37
2024/04/07 22:14:54;;;;;;;6.97;2.60;;;;;;;15.48;100.00;99792.28;11266477;26;20005;-40
2024/04/07 22:19:56;;;;;;;11.73;3.30;;;;;;;15.31;100.00;99800.13;11340651;26;20014;-39
2024/04/07 22:25:02;;;;;;;6.95;3.08;;;;;;;15.18;100.00;99800.06;11326565;26;20070;-40
2024/04/07 22:30:04;;;;;;;6.75;2.75;;;;;;;15.09;100.00;99811.44;11333378;26;20016;-38
2024/04/07 22:35:07;;;;;;;4.63;2.50;;;;;;;15.04;100.00;99834.25;11340883;26;20009;-39
2024/04/07 22:40:08;;;;;;;6.30;2.88;;;;;;;14.91;100.00;99840.31;11291594;26;20463;-40
2024/04/07 22:45:10;;;;;;;6.15;2.47;;;;;;;14.66;100.00;99850.69;11330200;26;19998;-39
2024/04/07 22:50:11;;;;;;;6.15;2.55;;;;;;;14.90;100.00;99856.97;11339399;26;20009;-38
2024/04/07 22:55:12;;;;;;;9.05;3.50;;;;;;;15.01;100.00;99847.38;11325403;26;19999;-39
2024/04/07 23:00:13;;;;;;;7.45;3.00;;;;;;;14.86;100.00;99835.88;11325159;26;19998;-39
2024/04/07 23:05:14;;;;;;;7.32;3.13;;;;;;;14.52;100.00;99850.56;11326152;26;19999;-39
2024/04/07 23:10:16;;;;;;;6.55;3.03;;;;;;;14.47;100.00;99852.25;11334298;26;20002;-39